< < Back
Terminal Aerodrome Forecast


Current Version              Previous Versions:   1  2  3  4  5  6  7  8  9  

Terminal Aerodrome Forecast

434
FTUS42 KGSP 012320
TAFGSP
TAF
KGSP 012320Z 0200/0224 22007KT P6SM SCT060 BKN250
     FM020300 21006KT P6SM VCTS BKN040CB
     FM021100 21005KT 5SM BR BKN020
     FM021300 21006KT P6SM SCT035 BKN080
     FM021800 20010KT P6SM SCT040 BKN150 PROB30 0218/0224 4SM -TSRA
      OVC040CB=

Latest METAR

468
SAUS70 KWBC 020600 RRI
MTRGSP
METAR KGSP 020553Z AUTO 00000KT 10SM FEW110 18/18 A3001 RMK AO2 SLP152
60003 T01830178 10244 20183 55001


USA.gov is the U.S. government's official web portal to all federal, state and local government web resources and services.